Flight Track Log - Related Links

Times and Time Zones

All times are in EST time to prevent confusion due to time zone crossing. See the AAY846 flight status page for this flight to view local times or setup timezone preferences in your user account.

Time Position Orientation Groundspeed Altitude Reporting Facility
EST Latitude Longitude Course Direction KTS MPH feet Rate Location/Type
Fri 08:10:00 AM 27.9333 -82.6833 360° North 167 192 800  Level Tampa TRACON
Fri 08:11:00 AM 27.9833 -82.6833 360° North 216 249 2,300 1,842 Climbing Tampa TRACON
Fri 08:11:54 AM 28.0333 -82.6500 30° Northeast 278 320 4,300 2,631 Climbing Tampa TRACON
Fri 08:14:23 AM 28.2167 -82.6900 349° North 285 328 11,200 2,383 Climbing Jacksonville Center
Fri 08:15:23 AM 28.2981 -82.7322 335° Northwest 297 342 12,600 1,350 Climbing Jacksonville Center
Fri 08:16:23 AM 28.3942 -82.7817 336° Northwest 334 384 13,900 2,050 Climbing Jacksonville Center
Fri 08:17:23 AM 28.4964 -82.8358 335° Northwest 378 435 16,700 2,050 Climbing Jacksonville Center
Fri 08:18:23 AM 28.5986 -82.8903 335° Northwest 398 458 18,000 1,700 Climbing Jacksonville Center
Fri 08:19:23 AM 28.7175 -82.9542 335° Northwest 410 472 20,100 1,900 Climbing Jacksonville Center
Fri 08:20:23 AM 28.8281 -83.0158 334° Northwest 422 486 21,800 1,800 Climbing Jacksonville Center
Fri 08:21:23 AM 28.9408 -83.0728 336° Northwest 430 495 23,700 1,850 Climbing Jacksonville Center
Fri 08:22:23 AM 29.0556 -83.1300 336° Northwest 441 507 25,500 2,000 Climbing Jacksonville Center
Fri 08:23:23 AM 29.1722 -83.1828 338° Northwest 441 507 27,700 1,900 Climbing Jacksonville Center
Fri 08:24:23 AM 29.2828 -83.2331 338° Northwest 435 501 29,300 1,450 Climbing Jacksonville Center
Fri 08:25:23 AM 29.3911 -83.2858 337° Northwest 430 495 30,600 1,300 Climbing Jacksonville Center
Fri 08:26:23 AM 29.5036 -83.3364 339° North 430 495 31,900 1,200 Climbing Jacksonville Center
Fri 08:27:23 AM 29.6078 -83.3869 337° Northwest 424 488 33,000 1,000 Climbing Jacksonville Center
Fri 08:28:23 AM 29.7164 -83.4378 338° Northwest 414 476 33,900 500 Climbing Jacksonville Center
Fri 08:29:23 AM 29.8122 -83.4814 338° Northwest 414 476 34,000 50 Climbing Jacksonville Center
Fri 08:30:23 AM 29.9206 -83.5325 338° Northwest 414 476 34,000  Level Jacksonville Center
Fri 08:31:23 AM 30.0308 -83.5858 337° Northwest 419 482 34,000  Level Jacksonville Center
Fri 08:32:23 AM 30.1369 -83.6347 338° Northwest 414 476 34,000 -50 Level Jacksonville Center
Fri 08:33:23 AM 30.2472 -83.6886 337° Northwest 414 476 33,900  Descending Jacksonville Center
Fri 08:34:23 AM 30.3556 -83.7375 339° North 414 476 34,000 50 Climbing Jacksonville Center
Fri 08:35:23 AM 30.4639 -83.7892 338° Northwest 414 476 34,000  Level Jacksonville Center
Fri 08:36:23 AM 30.5825 -83.8458 338° Northwest 409 471 34,000  Level Jacksonville Center
Fri 08:37:23 AM 30.6906 -83.8975 338° Northwest 409 471 34,000  Level Jacksonville Center
Fri 08:38:23 AM 30.8008 -83.9494 338° Northwest 414 476 34,000  Level Jacksonville Center
Fri 08:39:23 AM 30.9089 -84.0039 337° Northwest 414 476 34,000  Level Jacksonville Center
Fri 08:40:23 AM 31.0169 -84.0586 337° Northwest 414 476 34,000  Level Jacksonville Center
Fri 08:41:23 AM 31.1125 -84.1083 336° Northwest 414 476 34,000  Level Jacksonville Center
Fri 08:42:23 AM 31.2228 -84.1656 336° Northwest 414 476 34,000  Level Jacksonville Center
Fri 08:43:23 AM 31.3308 -84.2206 337° Northwest 414 476 34,000  Level Jacksonville Center
Fri 08:44:23 AM 31.4367 -84.2756 336° Northwest 414 476 34,000  Level Jacksonville Center
Fri 08:45:23 AM 31.5444 -84.3308 336° Northwest 419 482 34,000  Level Jacksonville Center
Fri 08:47:45 AM 31.8003 -84.4617 337° Northwest 417 480 34,000  Level Atlanta Center
Fri 08:48:45 AM 31.9086 -84.5208 335° Northwest 417 480 34,000  Level Atlanta Center
Fri 08:49:45 AM 32.0250 -84.5828 336° Northwest 417 480 34,000  Level Atlanta Center
Fri 08:50:45 AM 32.1292 -84.6372 336° Northwest 417 480 34,000  Level Atlanta Center
Fri 08:51:45 AM 32.2375 -84.6919 337° Northwest 417 480 34,000  Level Atlanta Center
Fri 08:52:45 AM 32.3436 -84.7519 334° Northwest 422 486 34,000  Level Atlanta Center
Fri 08:53:45 AM 32.4475 -84.8067 336° Northwest 417 480 34,000  Level Atlanta Center
Fri 08:54:45 AM 32.5456 -84.8519 339° North 417 480 34,000  Level Atlanta Center
Fri 08:55:45 AM 32.6472 -84.9097 334° Northwest 417 480 34,000  Level Atlanta Center
Fri 08:56:45 AM 32.7514 -84.9625 337° Northwest 412 474 34,000  Level Atlanta Center
Fri 08:57:45 AM 32.8719 -85.0356 333° Northwest 424 488 34,000  Level Atlanta Center
Fri 08:58:45 AM 32.9778 -85.0936 335° Northwest 418 481 34,000  Level Atlanta Center
Fri 08:59:45 AM 33.0817 -85.1469 337° Northwest 411 473 34,000  Level Atlanta Center
Fri 09:00:45 AM 33.1836 -85.2006 336° Northwest 411 473 34,000  Level Atlanta Center
Fri 09:01:45 AM 33.2914 -85.2567 336° Northwest 411 473 34,000  Level Atlanta Center
Fri 09:02:45 AM 33.3953 -85.3153 335° Northwest 411 473 34,000  Level Atlanta Center
Fri 09:03:45 AM 33.4886 -85.3664 335° Northwest 416 479 34,000  Level Atlanta Center
Fri 09:04:45 AM 33.5944 -85.4231 336° Northwest 411 473 34,000  Level Atlanta Center
Fri 09:05:45 AM 33.7003 -85.4794 336° Northwest 411 473 34,000  Level Atlanta Center
Fri 09:06:45 AM 33.8039 -85.5364 335° Northwest 411 473 34,000  Level Atlanta Center
Fri 09:07:45 AM 33.9117 -85.5933 336° Northwest 417 480 34,000  Level Atlanta Center
Fri 09:08:45 AM 34.0278 -85.6581 335° Northwest 412 474 34,000  Level Atlanta Center
Fri 09:09:45 AM 34.1314 -85.7178 334° Northwest 412 474 34,000  Level Atlanta Center
Fri 09:10:45 AM 34.2369 -85.7725 337° Northwest 417 480 34,000  Level Atlanta Center
Fri 09:11:45 AM 34.3281 -85.8222 336° Northwest 417 480 34,000  Level Atlanta Center
Fri 09:12:45 AM 34.4339 -85.8797 336° Northwest 404 465 34,000  Level Atlanta Center
Fri 09:13:45 AM 34.5394 -85.9375 336° Northwest 404 465 34,000  Level Atlanta Center
Fri 09:14:45 AM 34.6428 -85.9981 334° Northwest 404 465 34,000  Level Atlanta Center
Fri 09:15:45 AM 34.7483 -86.0561 336° Northwest 409 471 34,000  Level Atlanta Center
Fri 09:16:45 AM 34.8558 -86.1169 335° Northwest 415 478 34,000  Level Atlanta Center
Fri 09:18:20 AM 35.0253 -86.2150 335° Northwest 417 480 34,000  Level Memphis Center
Fri 09:19:22 AM 35.1214 -86.2697 335° Northwest 411 473 34,000  Level Memphis Center
Fri 09:20:24 AM 35.2428 -86.3389 335° Northwest 408 470 34,000  Level Memphis Center
Fri 09:21:25 AM 35.3469 -86.3992 335° Northwest 408 470 34,000  Level Memphis Center
Fri 09:22:27 AM 35.4519 -86.4581 335° Northwest 409 471 34,000  Level Memphis Center
Fri 09:23:29 AM 35.5561 -86.5200 334° Northwest 411 473 34,000  Level Memphis Center
Fri 09:24:31 AM 35.6614 -86.5797 335° Northwest 412 474 34,000  Level Memphis Center
Fri 09:25:33 AM 35.7647 -86.6397 335° Northwest 409 471 34,000  Level Memphis Center
Fri 09:26:34 AM 35.8672 -86.6989 335° Northwest 404 465 34,000  Level Memphis Center
Fri 09:27:36 AM 35.9689 -86.7583 335° Northwest 401 461 34,000  Level Memphis Center
Fri 09:28:38 AM 36.0708 -86.8181 335° Northwest 400 460 34,000  Level Memphis Center
Fri 09:29:40 AM 36.1897 -86.8875 335° Northwest 399 459 34,000  Level Memphis Center
Fri 09:30:42 AM 36.2933 -86.9472 335° Northwest 397 457 34,000  Level Memphis Center
Fri 09:31:44 AM 36.3792 -86.9972 335° Northwest 395 455 34,000  Level Memphis Center
Fri 09:32:45 AM 36.4992 -87.0683 335° Northwest 399 459 34,000  Level Memphis Center
Fri 09:33:47 AM 36.6014 -87.1289 335° Northwest 401 461 34,000  Level Memphis Center
Fri 09:34:49 AM 36.7050 -87.1903 335° Northwest 404 465 34,000  Level Memphis Center
Fri 09:35:51 AM 36.8078 -87.2525 334° Northwest 406 467 34,000  Level Memphis Center
Fri 09:36:53 AM 36.9111 -87.3142 334° Northwest 406 467 34,000  Level Memphis Center
Fri 09:37:55 AM 37.0144 -87.3753 335° Northwest 406 467 34,000  Level Memphis Center
Fri 09:38:56 AM 37.1172 -87.4375 334° Northwest 406 467 34,000  Level Memphis Center
Fri 09:39:52 AM 37.2217 -87.5006 334° Northwest 411 473 34,000  Level Indianapolis Center
Fri 09:40:52 AM 37.3258 -87.5633 334° Northwest 410 472 34,000  Level Indianapolis Center
Fri 09:41:56 AM 37.4294 -87.6247 335° Northwest 409 471 34,000  Level Indianapolis Center
Fri 09:42:57 AM 37.5319 -87.6897 333° Northwest 408 470 34,000  Level Indianapolis Center
Fri 09:43:58 AM 37.6347 -87.7517 334° Northwest 407 468 34,000  Level Indianapolis Center
Fri 09:44:59 AM 37.7364 -87.8142 334° Northwest 403 464 34,000  Level Indianapolis Center
Fri 09:46:03 AM 37.8311 -87.8728 334° Northwest 404 465 34,000  Level Indianapolis Center
Fri 09:47:04 AM 37.9325 -87.9347 334° Northwest 402 463 34,000  Level Indianapolis Center
Fri 09:48:05 AM 38.0544 -88.0092 334° Northwest 401 461 34,000  Level Indianapolis Center
Fri 09:49:07 AM 38.1556 -88.0728 334° Northwest 402 463 34,000  Level Indianapolis Center
Fri 09:50:05 AM 38.2581 -88.1367 334° Northwest 402 463 34,000  Level Kansas City Center
Fri 09:51:06 AM 38.3600 -88.1994 334° Northwest 402 463 34,000 -780 Level Kansas City Center
Fri 09:52:08 AM 38.4622 -88.2642 334° Northwest 405 466 32,400 -1,610 Descending Kansas City Center
Fri 09:53:09 AM 38.5656 -88.3311 333° Northwest 408 470 30,700 -1,659 Descending Kansas City Center
Fri 09:54:11 AM 38.6700 -88.3944 335° Northwest 410 472 29,000 -1,645 Descending Kansas City Center
Fri 09:55:13 AM 38.7747 -88.4625 333° Northwest 415 478 27,300 -1,659 Descending Kansas City Center
Fri 09:56:14 AM 38.8814 -88.5303 334° Northwest 421 484 25,600 -1,659 Descending Kansas City Center
Fri 09:57:16 AM 38.9875 -88.5958 334° Northwest 421 484 23,900 -1,645 Descending Kansas City Center
Fri 09:58:18 AM 39.0903 -88.6619 333° Northwest 416 479 22,200 -1,659 Descending Kansas City Center
Fri 09:59:19 AM 39.1919 -88.7267 334° Northwest 413 475 20,500 -1,659 Descending Kansas City Center
Fri 10:00:21 AM 39.2900 -88.7892 334° Northwest 408 470 18,800 -1,500 Descending Kansas City Center
Fri 10:01:23 AM 39.4019 -88.8614 334° Northwest 390 449 17,400 -1,122 Descending Kansas City Center
Fri 10:02:24 AM 39.4814 -88.9136 333° Northwest 379 436 16,500 -1,024 Descending Kansas City Center
Fri 10:03:26 AM 39.5869 -88.9819 333° Northwest 358 412 15,300 -1,065 Descending Kansas City Center
Fri 10:04:28 AM 39.6717 -89.0358 334° Northwest 345 397 14,300 -976 Descending Kansas City Center
Fri 10:05:29 AM 39.7553 -89.0900 334° Northwest 338 389 13,300 -976 Descending Kansas City Center
Fri 10:06:31 AM 39.8381 -89.1450 333° Northwest 335 386 12,300 -629 Descending Kansas City Center
Fri 10:07:33 AM 39.9200 -89.1983 333° Northwest 331 381 12,000 -146 Descending Kansas City Center
Fri 10:08:34 AM 40.0019 -89.2514 334° Northwest 329 379 12,000  Level Kansas City Center
Fri 10:09:36 AM 40.0806 -89.3039 333° Northwest 322 371 12,000  Level Kansas City Center
Fri 10:10:54 AM 40.1917 -89.3772 333° Northwest 321 369 12,000 -171 Level Chicago Center
Fri 10:11:56 AM 40.2772 -89.4131 342° North 324 373 11,600 -823 Descending Chicago Center
Fri 10:12:58 AM 40.3461 -89.4444 341° North 274 315 10,300 -2,195 Descending Chicago Center
Fri 10:13:59 AM 40.4100 -89.4819 336° Northwest 249 287 7,100 -2,537 Descending Chicago Center
Fri 10:15:01 AM 40.4744 -89.5189 336° Northwest 254 292 5,100 -2,177 Descending Chicago Center
Fri 10:16:03 AM 40.5456 -89.5592 337° Northwest 241 277 2,600 -1,306 Descending Chicago Center
Fri 10:17:05 AM 40.6028 -89.5908 337° Northwest 233 268 2,400 -290 Descending Chicago Center
Fri 10:18:07 AM 40.6289 -89.6339 309° West 180 207 2,000 -732 Descending Chicago Center
Fri 10:19:08 AM 40.6517 -89.6744 307° West 152 175 900 -683 Descending Chicago Center
Fri 10:20:10 AM 40.6717 -89.7108 306° West 146 168 600 -290 Descending Chicago Center

Login

Don't have an account? Register now (free) for customized features, flight alerts, and more!